sensor_id;sensor_type;location;lat;lon;timestamp;temperature;humidity
24232;DHT22;12364;47.810;8.810;2024-02-26T04:46:28;7.10;99.90
24232;DHT22;12364;47.810;8.810;2024-02-26T04:48:55;7.20;99.90
24232;DHT22;12364;47.810;8.810;2024-02-26T04:51:24;7.50;99.90
24232;DHT22;12364;47.810;8.810;2024-02-26T04:53:51;7.70;99.90
24232;DHT22;12364;47.810;8.810;2024-02-26T04:56:21;8.00;99.90
24232;DHT22;12364;47.810;8.810;2024-02-26T04:58:48;8.00;99.90
24232;DHT22;12364;47.810;8.810;2024-02-26T05:01:15;8.00;99.90
24232;DHT22;12364;47.810;8.810;2024-02-26T05:03:44;7.60;99.90
24232;DHT22;12364;47.810;8.810;2024-02-26T05:06:11;7.50;99.90
24232;DHT22;12364;47.810;8.810;2024-02-26T05:08:38;7.50;99.90
24232;DHT22;12364;47.810;8.810;2024-02-26T05:11:05;7.40;99.90
24232;DHT22;12364;47.810;8.810;2024-02-26T05:13:33;7.30;99.90
24232;DHT22;12364;47.810;8.810;2024-02-26T05:16:00;7.40;99.90
24232;DHT22;12364;47.810;8.810;2024-02-26T05:18:27;7.40;99.90
24232;DHT22;12364;47.810;8.810;2024-02-26T05:20:54;7.60;99.90
24232;DHT22;12364;47.810;8.810;2024-02-26T05:23:21;7.70;99.90
24232;DHT22;12364;47.810;8.810;2024-02-26T05:25:49;7.80;99.90
24232;DHT22;12364;47.810;8.810;2024-02-26T05:28:17;7.80;99.90
24232;DHT22;12364;47.810;8.810;2024-02-26T05:30:47;7.90;99.90
24232;DHT22;12364;47.810;8.810;2024-02-26T05:33:14;8.00;99.90
24232;DHT22;12364;47.810;8.810;2024-02-26T05:35:45;7.90;99.90
24232;DHT22;12364;47.810;8.810;2024-02-26T05:38:12;8.00;99.90
24232;DHT22;12364;47.810;8.810;2024-02-26T05:40:39;7.90;99.90
24232;DHT22;12364;47.810;8.810;2024-02-26T05:43:06;7.60;99.90
24232;DHT22;12364;47.810;8.810;2024-02-26T05:45:33;7.70;99.90
24232;DHT22;12364;47.810;8.810;2024-02-26T05:48:00;7.80;99.90
24232;DHT22;12364;47.810;8.810;2024-02-26T05:50:27;7.90;99.90
24232;DHT22;12364;47.810;8.810;2024-02-26T05:52:54;7.80;99.90
24232;DHT22;12364;47.810;8.810;2024-02-26T05:55:21;7.50;99.90
24232;DHT22;12364;47.810;8.810;2024-02-26T05:57:48;7.40;99.90
24232;DHT22;12364;47.810;8.810;2024-02-26T06:00:16;7.50;99.90
24232;DHT22;12364;47.810;8.810;2024-02-26T06:02:43;7.50;99.90
24232;DHT22;12364;47.810;8.810;2024-02-26T06:05:11;7.80;99.90
24232;DHT22;12364;47.810;8.810;2024-02-26T06:07:38;7.60;99.90
24232;DHT22;12364;47.810;8.810;2024-02-26T06:10:05;7.70;99.90
24232;DHT22;12364;47.810;8.810;2024-02-26T06:12:34;7.80;99.90
24232;DHT22;12364;47.810;8.810;2024-02-26T06:15:02;7.80;99.90
24232;DHT22;12364;47.810;8.810;2024-02-26T06:17:29;7.90;99.90
24232;DHT22;12364;47.810;8.810;2024-02-26T06:19:56;7.80;99.90
24232;DHT22;12364;47.810;8.810;2024-02-26T06:22:23;7.70;99.90
24232;DHT22;12364;47.810;8.810;2024-02-26T06:24:50;7.60;99.90
24232;DHT22;12364;47.810;8.810;2024-02-26T06:27:17;7.60;99.90
24232;DHT22;12364;47.810;8.810;2024-02-26T06:29:44;7.80;99.90
24232;DHT22;12364;47.810;8.810;2024-02-26T06:32:11;7.90;99.90
24232;DHT22;12364;47.810;8.810;2024-02-26T06:34:38;8.00;99.90
24232;DHT22;12364;47.810;8.810;2024-02-26T06:37:07;8.10;99.90
24232;DHT22;12364;47.810;8.810;2024-02-26T06:39:35;8.20;99.90
24232;DHT22;12364;47.810;8.810;2024-02-26T06:42:02;8.30;99.90
24232;DHT22;12364;47.810;8.810;2024-02-26T06:44:29;8.30;99.90
24232;DHT22;12364;47.810;8.810;2024-02-26T06:46:59;8.20;99.90
24232;DHT22;12364;47.810;8.810;2024-02-26T06:49:26;8.10;99.90
24232;DHT22;12364;47.810;8.810;2024-02-26T06:51:54;8.10;99.90
24232;DHT22;12364;47.810;8.810;2024-02-26T06:54:21;8.30;99.90
24232;DHT22;12364;47.810;8.810;2024-02-26T06:56:48;8.40;99.90
24232;DHT22;12364;47.810;8.810;2024-02-26T06:59:15;8.50;99.90
24232;DHT22;12364;47.810;8.810;2024-02-26T07:01:42;8.50;99.90
24232;DHT22;12364;47.810;8.810;2024-02-26T07:04:10;8.50;99.90
24232;DHT22;12364;47.810;8.810;2024-02-26T07:06:38;8.50;99.90
24232;DHT22;12364;47.810;8.810;2024-02-26T07:09:05;8.50;99.90
24232;DHT22;12364;47.810;8.810;2024-02-26T07:11:32;8.60;99.90
24232;DHT22;12364;47.810;8.810;2024-02-26T07:13:59;8.60;99.90
24232;DHT22;12364;47.810;8.810;2024-02-26T07:16:27;8.70;99.90
24232;DHT22;12364;47.810;8.810;2024-02-26T07:18:54;8.60;99.90
24232;DHT22;12364;47.810;8.810;2024-02-26T07:21:22;8.70;99.90
24232;DHT22;12364;47.810;8.810;2024-02-26T07:23:49;8.60;99.90
24232;DHT22;12364;47.810;8.810;2024-02-26T07:26:16;8.50;99.90
24232;DHT22;12364;47.810;8.810;2024-02-26T07:28:45;8.20;99.90
24232;DHT22;12364;47.810;8.810;2024-02-26T07:31:12;8.30;99.90
24232;DHT22;12364;47.810;8.810;2024-02-26T07:33:39;8.30;99.90
24232;DHT22;12364;47.810;8.810;2024-02-26T07:36:07;8.30;99.90
24232;DHT22;12364;47.810;8.810;2024-02-26T07:38:34;8.40;99.90
24232;DHT22;12364;47.810;8.810;2024-02-26T07:41:09;8.60;99.90
24232;DHT22;12364;47.810;8.810;2024-02-26T07:43:37;8.60;99.90
24232;DHT22;12364;47.810;8.810;2024-02-26T07:46:04;8.70;99.90
24232;DHT22;12364;47.810;8.810;2024-02-26T07:48:31;8.80;99.90
24232;DHT22;12364;47.810;8.810;2024-02-26T07:50:58;8.80;99.90
24232;DHT22;12364;47.810;8.810;2024-02-26T07:53:27;8.80;99.90
24232;DHT22;12364;47.810;8.810;2024-02-26T07:55:54;8.70;99.90
24232;DHT22;12364;47.810;8.810;2024-02-26T07:58:21;8.60;99.90
24232;DHT22;12364;47.810;8.810;2024-02-26T08:00:48;8.60;99.90
24232;DHT22;12364;47.810;8.810;2024-02-26T08:03:15;8.60;99.90
24232;DHT22;12364;47.810;8.810;2024-02-26T08:05:43;8.70;99.90
24232;DHT22;12364;47.810;8.810;2024-02-26T08:08:10;8.80;99.90
24232;DHT22;12364;47.810;8.810;2024-02-26T08:10:37;8.80;99.90
24232;DHT22;12364;47.810;8.810;2024-02-26T08:13:04;8.80;99.90
24232;DHT22;12364;47.810;8.810;2024-02-26T08:15:32;8.90;99.90
24232;DHT22;12364;47.810;8.810;2024-02-26T08:18:01;8.90;99.90
24232;DHT22;12364;47.810;8.810;2024-02-26T08:20:31;8.90;99.90
24232;DHT22;12364;47.810;8.810;2024-02-26T08:22:59;8.70;99.90
24232;DHT22;12364;47.810;8.810;2024-02-26T08:25:26;8.50;99.90
24232;DHT22;12364;47.810;8.810;2024-02-26T08:27:53;8.60;99.90
24232;DHT22;12364;47.810;8.810;2024-02-26T08:30:20;8.70;99.90
24232;DHT22;12364;47.810;8.810;2024-02-26T08:32:47;8.70;99.90
24232;DHT22;12364;47.810;8.810;2024-02-26T08:35:18;8.60;99.90
24232;DHT22;12364;47.810;8.810;2024-02-26T08:37:46;8.70;99.90
24232;DHT22;12364;47.810;8.810;2024-02-26T08:40:14;8.80;99.90
24232;DHT22;12364;47.810;8.810;2024-02-26T08:42:41;8.70;99.90
24232;DHT22;12364;47.810;8.810;2024-02-26T08:45:08;8.70;99.90
24232;DHT22;12364;47.810;8.810;2024-02-26T08:47:36;8.70;99.90
24232;DHT22;12364;47.810;8.810;2024-02-26T08:50:03;8.70;99.90
24232;DHT22;12364;47.810;8.810;2024-02-26T08:52:30;8.70;99.90
24232;DHT22;12364;47.810;8.810;2024-02-26T08:54:57;8.70;99.90
24232;DHT22;12364;47.810;8.810;2024-02-26T08:57:24;8.70;99.90
24232;DHT22;12364;47.810;8.810;2024-02-26T08:59:54;8.80;99.90
24232;DHT22;12364;47.810;8.810;2024-02-26T09:02:21;8.80;99.90
24232;DHT22;12364;47.810;8.810;2024-02-26T09:04:48;8.70;99.90
24232;DHT22;12364;47.810;8.810;2024-02-26T09:07:15;8.90;99.90
24232;DHT22;12364;47.810;8.810;2024-02-26T09:09:42;8.90;99.90
24232;DHT22;12364;47.810;8.810;2024-02-26T09:12:09;8.90;99.90
24232;DHT22;12364;47.810;8.810;2024-02-26T09:14:36;8.90;99.90
24232;DHT22;12364;47.810;8.810;2024-02-26T09:17:03;8.80;99.90
24232;DHT22;12364;47.810;8.810;2024-02-26T09:19:30;8.70;99.90
24232;DHT22;12364;47.810;8.810;2024-02-26T09:21:57;8.60;99.90
24232;DHT22;12364;47.810;8.810;2024-02-26T09:24:26;8.80;99.90
24232;DHT22;12364;47.810;8.810;2024-02-26T09:26:53;8.90;99.90
24232;DHT22;12364;47.810;8.810;2024-02-26T09:29:20;9.10;99.90
24232;DHT22;12364;47.810;8.810;2024-02-26T09:31:47;9.20;99.90
24232;DHT22;12364;47.810;8.810;2024-02-26T09:34:14;9.30;99.90
24232;DHT22;12364;47.810;8.810;2024-02-26T09:36:42;9.50;99.90
24232;DHT22;12364;47.810;8.810;2024-02-26T09:39:09;9.50;99.90
24232;DHT22;12364;47.810;8.810;2024-02-26T09:41:39;9.70;99.90
24232;DHT22;12364;47.810;8.810;2024-02-26T09:44:06;9.70;99.90
24232;DHT22;12364;47.810;8.810;2024-02-26T09:46:34;9.80;99.90
24232;DHT22;12364;47.810;8.810;2024-02-26T09:49:01;9.90;99.90
24232;DHT22;12364;47.810;8.810;2024-02-26T09:51:28;9.90;99.90
24232;DHT22;12364;47.810;8.810;2024-02-26T09:53:56;9.90;99.90
24232;DHT22;12364;47.810;8.810;2024-02-26T09:56:26;10.10;99.90
24232;DHT22;12364;47.810;8.810;2024-02-26T09:58:53;10.10;99.90
24232;DHT22;12364;47.810;8.810;2024-02-26T10:01:21;10.00;99.90
24232;DHT22;12364;47.810;8.810;2024-02-26T10:03:57;10.10;99.90
24232;DHT22;12364;47.810;8.810;2024-02-26T10:06:27;10.20;99.90
24232;DHT22;12364;47.810;8.810;2024-02-26T10:08:58;10.20;99.90
24232;DHT22;12364;47.810;8.810;2024-02-26T10:11:26;10.30;99.90
24232;DHT22;12364;47.810;8.810;2024-02-26T10:13:53;10.40;99.90
24232;DHT22;12364;47.810;8.810;2024-02-26T10:16:21;10.10;99.90
24232;DHT22;12364;47.810;8.810;2024-02-26T10:21:18;10.30;99.90
24232;DHT22;12364;47.810;8.810;2024-02-26T10:23:46;10.30;99.90
24232;DHT22;12364;47.810;8.810;2024-02-26T10:26:20;10.40;99.90
24232;DHT22;12364;47.810;8.810;2024-02-26T10:28:47;10.50;99.90
24232;DHT22;12364;47.810;8.810;2024-02-26T10:31:19;10.60;99.90
24232;DHT22;12364;47.810;8.810;2024-02-26T10:33:46;10.70;99.90
24232;DHT22;12364;47.810;8.810;2024-02-26T10:36:13;10.60;99.90
24232;DHT22;12364;47.810;8.810;2024-02-26T10:38:41;10.50;99.90
24232;DHT22;12364;47.810;8.810;2024-02-26T10:41:13;10.60;99.90
24232;DHT22;12364;47.810;8.810;2024-02-26T10:43:40;10.70;99.90
24232;DHT22;12364;47.810;8.810;2024-02-26T10:46:08;10.80;99.90
24232;DHT22;12364;47.810;8.810;2024-02-26T10:48:36;10.90;99.90
24232;DHT22;12364;47.810;8.810;2024-02-26T10:51:04;10.80;99.90
24232;DHT22;12364;47.810;8.810;2024-02-26T10:53:31;10.90;99.90
24232;DHT22;12364;47.810;8.810;2024-02-26T10:56:02;11.00;99.90
24232;DHT22;12364;47.810;8.810;2024-02-26T10:58:30;10.90;99.90
24232;DHT22;12364;47.810;8.810;2024-02-26T11:00:58;11.00;99.90
24232;DHT22;12364;47.810;8.810;2024-02-26T11:03:25;11.00;99.90
24232;DHT22;12364;47.810;8.810;2024-02-26T11:05:53;11.00;99.90
24232;DHT22;12364;47.810;8.810;2024-02-26T11:08:21;11.10;99.90
24232;DHT22;12364;47.810;8.810;2024-02-26T11:10:48;11.10;99.90
24232;DHT22;12364;47.810;8.810;2024-02-26T11:13:17;11.20;99.90
24232;DHT22;12364;47.810;8.810;2024-02-26T11:15:46;11.20;99.90
24232;DHT22;12364;47.810;8.810;2024-02-26T11:18:16;11.20;99.90
24232;DHT22;12364;47.810;8.810;2024-02-26T11:20:45;11.30;99.90
24232;DHT22;12364;47.810;8.810;2024-02-26T11:23:13;11.30;99.90
24232;DHT22;12364;47.810;8.810;2024-02-26T11:25:40;11.30;99.90
24232;DHT22;12364;47.810;8.810;2024-02-26T11:28:12;11.40;99.90
24232;DHT22;12364;47.810;8.810;2024-02-26T11:30:47;11.30;99.90
24232;DHT22;12364;47.810;8.810;2024-02-26T11:33:15;11.20;99.90
24232;DHT22;12364;47.810;8.810;2024-02-26T11:35:43;11.20;99.90
24232;DHT22;12364;47.810;8.810;2024-02-26T11:38:16;11.30;99.90
24232;DHT22;12364;47.810;8.810;2024-02-26T11:40:44;11.20;99.90
24232;DHT22;12364;47.810;8.810;2024-02-26T11:43:11;11.30;99.90
24232;DHT22;12364;47.810;8.810;2024-02-26T11:50:40;11.30;99.90
24232;DHT22;12364;47.810;8.810;2024-02-26T11:53:26;11.20;99.90
24232;DHT22;12364;47.810;8.810;2024-02-26T11:58:40;11.10;99.90
24232;DHT22;12364;47.810;8.810;2024-02-26T12:03:54;11.50;99.90
24232;DHT22;12364;47.810;8.810;2024-02-26T12:06:21;11.60;99.90
24232;DHT22;12364;47.810;8.810;2024-02-26T12:08:48;11.80;99.90
24232;DHT22;12364;47.810;8.810;2024-02-26T12:11:15;11.80;99.90
24232;DHT22;12364;47.810;8.810;2024-02-26T12:13:45;11.90;99.90
24232;DHT22;12364;47.810;8.810;2024-02-26T12:16:13;12.00;99.90
24232;DHT22;12364;47.810;8.810;2024-02-26T12:19:00;12.00;99.90
24232;DHT22;12364;47.810;8.810;2024-02-26T12:21:28;11.80;99.90
24232;DHT22;12364;47.810;8.810;2024-02-26T12:23:55;11.90;99.90
24232;DHT22;12364;47.810;8.810;2024-02-26T12:26:22;11.80;99.90
24232;DHT22;12364;47.810;8.810;2024-02-26T12:28:49;11.90;99.90
24232;DHT22;12364;47.810;8.810;2024-02-26T12:31:16;12.00;99.90
24232;DHT22;12364;47.810;8.810;2024-02-26T12:33:43;12.10;99.90
24232;DHT22;12364;47.810;8.810;2024-02-26T12:36:10;12.00;99.90
24232;DHT22;12364;47.810;8.810;2024-02-26T12:38:37;11.70;99.90
24232;DHT22;12364;47.810;8.810;2024-02-26T12:41:05;11.50;99.90
24232;DHT22;12364;47.810;8.810;2024-02-26T12:43:33;11.30;99.90
24232;DHT22;12364;47.810;8.810;2024-02-26T12:46:02;11.50;99.90
24232;DHT22;12364;47.810;8.810;2024-02-26T12:48:29;11.80;99.90
24232;DHT22;12364;47.810;8.810;2024-02-26T12:50:56;11.90;99.90
24232;DHT22;12364;47.810;8.810;2024-02-26T12:53:25;11.90;99.90
24232;DHT22;12364;47.810;8.810;2024-02-26T12:55:55;11.80;99.90
24232;DHT22;12364;47.810;8.810;2024-02-26T12:58:22;11.90;99.90
24232;DHT22;12364;47.810;8.810;2024-02-26T13:00:54;12.10;99.90
24232;DHT22;12364;47.810;8.810;2024-02-26T13:03:22;11.60;99.90
24232;DHT22;12364;47.810;8.810;2024-02-26T13:05:49;11.70;99.90
24232;DHT22;12364;47.810;8.810;2024-02-26T13:08:17;11.80;99.90
24232;DHT22;12364;47.810;8.810;2024-02-26T13:10:47;11.70;99.90
24232;DHT22;12364;47.810;8.810;2024-02-26T13:13:15;11.40;99.90
24232;DHT22;12364;47.810;8.810;2024-02-26T13:15:45;11.20;99.90
24232;DHT22;12364;47.810;8.810;2024-02-26T13:18:15;11.30;99.90
24232;DHT22;12364;47.810;8.810;2024-02-26T13:20:42;11.20;99.90
24232;DHT22;12364;47.810;8.810;2024-02-26T13:23:12;11.20;99.90
24232;DHT22;12364;47.810;8.810;2024-02-26T13:25:39;11.40;99.90
24232;DHT22;12364;47.810;8.810;2024-02-26T13:28:15;11.60;99.90
24232;DHT22;12364;47.810;8.810;2024-02-26T13:30:54;11.60;99.90
24232;DHT22;12364;47.810;8.810;2024-02-26T13:33:24;11.30;99.90
24232;DHT22;12364;47.810;8.810;2024-02-26T13:35:51;11.40;99.90
24232;DHT22;12364;47.810;8.810;2024-02-26T13:38:19;11.40;99.90
24232;DHT22;12364;47.810;8.810;2024-02-26T13:40:46;11.40;99.90
24232;DHT22;12364;47.810;8.810;2024-02-26T13:43:13;11.50;99.90
24232;DHT22;12364;47.810;8.810;2024-02-26T13:45:40;11.30;99.90
24232;DHT22;12364;47.810;8.810;2024-02-26T13:48:08;11.30;99.90
24232;DHT22;12364;47.810;8.810;2024-02-26T13:50:37;11.60;99.90
24232;DHT22;12364;47.810;8.810;2024-02-26T13:53:04;11.50;99.90
24232;DHT22;12364;47.810;8.810;2024-02-26T13:55:31;11.60;99.90
24232;DHT22;12364;47.810;8.810;2024-02-26T13:57:59;12.00;99.90
24232;DHT22;12364;47.810;8.810;2024-02-26T14:00:28;11.90;99.90
24232;DHT22;12364;47.810;8.810;2024-02-26T14:02:58;12.10;99.90
24232;DHT22;12364;47.810;8.810;2024-02-26T14:05:26;12.00;99.90
24232;DHT22;12364;47.810;8.810;2024-02-26T14:07:53;12.00;99.90
24232;DHT22;12364;47.810;8.810;2024-02-26T14:10:22;11.70;99.90
24232;DHT22;12364;47.810;8.810;2024-02-26T14:12:49;11.60;99.90
24232;DHT22;12364;47.810;8.810;2024-02-26T14:15:16;11.70;99.90
24232;DHT22;12364;47.810;8.810;2024-02-26T14:17:43;11.70;99.90
24232;DHT22;12364;47.810;8.810;2024-02-26T14:20:10;11.90;99.90
24232;DHT22;12364;47.810;8.810;2024-02-26T14:22:37;11.60;99.90
24232;DHT22;12364;47.810;8.810;2024-02-26T14:25:04;11.60;99.90
24232;DHT22;12364;47.810;8.810;2024-02-26T14:27:31;11.60;99.90
24232;DHT22;12364;47.810;8.810;2024-02-26T14:29:58;11.90;99.90
24232;DHT22;12364;47.810;8.810;2024-02-26T14:32:26;12.00;99.90
24232;DHT22;12364;47.810;8.810;2024-02-26T14:34:55;12.00;99.90
24232;DHT22;12364;47.810;8.810;2024-02-26T14:37:22;12.30;99.90
24232;DHT22;12364;47.810;8.810;2024-02-26T14:39:49;12.50;99.90
24232;DHT22;12364;47.810;8.810;2024-02-26T14:42:18;12.20;99.90
24232;DHT22;12364;47.810;8.810;2024-02-26T14:44:45;12.20;99.90
24232;DHT22;12364;47.810;8.810;2024-02-26T14:47:14;12.20;99.90
24232;DHT22;12364;47.810;8.810;2024-02-26T14:49:41;12.00;99.90
24232;DHT22;12364;47.810;8.810;2024-02-26T14:52:09;11.90;99.90
24232;DHT22;12364;47.810;8.810;2024-02-26T14:54:36;12.00;99.90
24232;DHT22;12364;47.810;8.810;2024-02-26T14:57:06;12.00;99.90
24232;DHT22;12364;47.810;8.810;2024-02-26T14:59:34;12.00;99.90
24232;DHT22;12364;47.810;8.810;2024-02-26T15:02:03;12.00;99.90
24232;DHT22;12364;47.810;8.810;2024-02-26T15:04:30;12.20;99.90
24232;DHT22;12364;47.810;8.810;2024-02-26T15:06:58;12.30;99.90
24232;DHT22;12364;47.810;8.810;2024-02-26T15:09:25;12.30;99.90
24232;DHT22;12364;47.810;8.810;2024-02-26T15:11:52;12.30;99.90
24232;DHT22;12364;47.810;8.810;2024-02-26T15:14:19;12.40;99.90
24232;DHT22;12364;47.810;8.810;2024-02-26T15:16:46;12.30;99.90
24232;DHT22;12364;47.810;8.810;2024-02-26T15:19:13;12.40;99.90
24232;DHT22;12364;47.810;8.810;2024-02-26T15:21:44;12.50;99.90
24232;DHT22;12364;47.810;8.810;2024-02-26T15:24:11;12.50;99.90
24232;DHT22;12364;47.810;8.810;2024-02-26T15:26:38;12.40;99.90
24232;DHT22;12364;47.810;8.810;2024-02-26T15:29:07;12.50;99.90
24232;DHT22;12364;47.810;8.810;2024-02-26T15:31:36;12.20;99.90
24232;DHT22;12364;47.810;8.810;2024-02-26T15:34:03;12.10;99.90
24232;DHT22;12364;47.810;8.810;2024-02-26T15:36:30;12.10;99.90
24232;DHT22;12364;47.810;8.810;2024-02-26T15:38:57;12.10;99.90
24232;DHT22;12364;47.810;8.810;2024-02-26T15:41:25;12.00;99.90
24232;DHT22;12364;47.810;8.810;2024-02-26T15:43:51;12.10;99.90
24232;DHT22;12364;47.810;8.810;2024-02-26T15:46:18;12.20;99.90
24232;DHT22;12364;47.810;8.810;2024-02-26T15:48:46;12.30;99.90
24232;DHT22;12364;47.810;8.810;2024-02-26T15:51:20;12.30;99.90
24232;DHT22;12364;47.810;8.810;2024-02-26T15:53:47;12.30;99.90
24232;DHT22;12364;47.810;8.810;2024-02-26T15:56:15;12.40;99.90
24232;DHT22;12364;47.810;8.810;2024-02-26T15:58:42;12.30;99.90
24232;DHT22;12364;47.810;8.810;2024-02-26T16:01:09;12.00;99.90
24232;DHT22;12364;47.810;8.810;2024-02-26T16:03:49;11.90;99.90
24232;DHT22;12364;47.810;8.810;2024-02-26T16:06:20;11.90;99.90
24232;DHT22;12364;47.810;8.810;2024-02-26T16:08:49;12.10;99.90
24232;DHT22;12364;47.810;8.810;2024-02-26T16:11:16;12.10;99.90
24232;DHT22;12364;47.810;8.810;2024-02-26T16:13:43;12.00;99.90
24232;DHT22;12364;47.810;8.810;2024-02-26T16:16:18;11.90;99.90
24232;DHT22;12364;47.810;8.810;2024-02-26T16:18:46;11.90;99.90
24232;DHT22;12364;47.810;8.810;2024-02-26T16:21:13;11.90;99.90
24232;DHT22;12364;47.810;8.810;2024-02-26T16:23:40;11.90;99.90
24232;DHT22;12364;47.810;8.810;2024-02-26T16:26:07;12.00;99.90
24232;DHT22;12364;47.810;8.810;2024-02-26T16:28:34;12.00;99.90
24232;DHT22;12364;47.810;8.810;2024-02-26T16:31:02;11.90;99.90
24232;DHT22;12364;47.810;8.810;2024-02-26T16:33:29;11.90;99.90
24232;DHT22;12364;47.810;8.810;2024-02-26T16:35:56;11.90;99.90
24232;DHT22;12364;47.810;8.810;2024-02-26T16:38:23;12.10;99.90
24232;DHT22;12364;47.810;8.810;2024-02-26T16:40:50;12.10;99.90
24232;DHT22;12364;47.810;8.810;2024-02-26T16:43:17;12.30;99.90
24232;DHT22;12364;47.810;8.810;2024-02-26T16:45:44;12.30;99.90
24232;DHT22;12364;47.810;8.810;2024-02-26T16:48:11;12.30;99.90
24232;DHT22;12364;47.810;8.810;2024-02-26T16:50:38;12.30;99.90
24232;DHT22;12364;47.810;8.810;2024-02-26T16:53:05;12.30;99.90
24232;DHT22;12364;47.810;8.810;2024-02-26T16:55:32;12.40;99.90
24232;DHT22;12364;47.810;8.810;2024-02-26T16:57:59;12.40;99.90
24232;DHT22;12364;47.810;8.810;2024-02-26T17:00:26;12.40;99.90
24232;DHT22;12364;47.810;8.810;2024-02-26T17:02:53;12.40;99.90
24232;DHT22;12364;47.810;8.810;2024-02-26T17:05:22;12.30;99.90
24232;DHT22;12364;47.810;8.810;2024-02-26T17:07:49;12.20;99.90
24232;DHT22;12364;47.810;8.810;2024-02-26T17:10:16;12.30;99.90
24232;DHT22;12364;47.810;8.810;2024-02-26T17:12:43;12.30;99.90
24232;DHT22;12364;47.810;8.810;2024-02-26T17:15:12;12.30;99.90
24232;DHT22;12364;47.810;8.810;2024-02-26T17:17:39;12.30;99.90
24232;DHT22;12364;47.810;8.810;2024-02-26T17:20:06;12.30;99.90
24232;DHT22;12364;47.810;8.810;2024-02-26T17:22:34;12.30;99.90
24232;DHT22;12364;47.810;8.810;2024-02-26T17:25:02;12.30;99.90
24232;DHT22;12364;47.810;8.810;2024-02-26T17:27:29;12.30;99.90
24232;DHT22;12364;47.810;8.810;2024-02-26T17:29:56;12.20;99.90
24232;DHT22;12364;47.810;8.810;2024-02-26T17:32:23;12.10;99.90
24232;DHT22;12364;47.810;8.810;2024-02-26T17:34:50;12.10;99.90
24232;DHT22;12364;47.810;8.810;2024-02-26T17:37:17;12.00;99.90
24232;DHT22;12364;47.810;8.810;2024-02-26T17:39:45;11.90;99.90
24232;DHT22;12364;47.810;8.810;2024-02-26T17:42:12;12.00;99.90
24232;DHT22;12364;47.810;8.810;2024-02-26T17:44:39;12.00;99.90
24232;DHT22;12364;47.810;8.810;2024-02-26T17:47:06;11.90;99.90
24232;DHT22;12364;47.810;8.810;2024-02-26T17:49:33;12.00;99.90
24232;DHT22;12364;47.810;8.810;2024-02-26T17:52:01;12.00;99.90
24232;DHT22;12364;47.810;8.810;2024-02-26T17:54:28;11.90;99.90
24232;DHT22;12364;47.810;8.810;2024-02-26T17:56:56;12.00;99.90
24232;DHT22;12364;47.810;8.810;2024-02-26T17:59:24;12.00;99.90
24232;DHT22;12364;47.810;8.810;2024-02-26T18:01:51;12.00;99.90
24232;DHT22;12364;47.810;8.810;2024-02-26T18:04:18;12.10;99.90
24232;DHT22;12364;47.810;8.810;2024-02-26T18:06:46;12.00;99.90
24232;DHT22;12364;47.810;8.810;2024-02-26T18:09:13;11.90;99.90
24232;DHT22;12364;47.810;8.810;2024-02-26T18:11:44;11.90;99.90
24232;DHT22;12364;47.810;8.810;2024-02-26T18:14:11;11.90;99.90
24232;DHT22;12364;47.810;8.810;2024-02-26T18:16:38;11.80;99.90
24232;DHT22;12364;47.810;8.810;2024-02-26T18:19:05;11.70;99.90
24232;DHT22;12364;47.810;8.810;2024-02-26T18:21:33;11.60;99.90
24232;DHT22;12364;47.810;8.810;2024-02-26T18:24:01;11.40;99.90
24232;DHT22;12364;47.810;8.810;2024-02-26T18:26:28;11.30;99.90
24232;DHT22;12364;47.810;8.810;2024-02-26T18:28:55;11.00;99.90
24232;DHT22;12364;47.810;8.810;2024-02-26T18:31:22;10.70;99.90
24232;DHT22;12364;47.810;8.810;2024-02-26T18:33:49;10.50;99.90
24232;DHT22;12364;47.810;8.810;2024-02-26T18:36:17;10.60;99.90
24232;DHT22;12364;47.810;8.810;2024-02-26T18:38:49;10.80;99.90
24232;DHT22;12364;47.810;8.810;2024-02-26T18:41:18;10.80;99.90
24232;DHT22;12364;47.810;8.810;2024-02-26T18:43:46;10.90;99.90
24232;DHT22;12364;47.810;8.810;2024-02-26T18:46:13;10.90;99.90
24232;DHT22;12364;47.810;8.810;2024-02-26T18:48:40;11.00;99.90
24232;DHT22;12364;47.810;8.810;2024-02-26T18:51:09;11.10;99.90
24232;DHT22;12364;47.810;8.810;2024-02-26T18:53:38;11.00;99.90
24232;DHT22;12364;47.810;8.810;2024-02-26T18:56:08;11.20;99.90
24232;DHT22;12364;47.810;8.810;2024-02-26T18:58:35;11.20;99.90
24232;DHT22;12364;47.810;8.810;2024-02-26T19:01:03;11.10;99.90
24232;DHT22;12364;47.810;8.810;2024-02-26T19:03:30;11.20;99.90
24232;DHT22;12364;47.810;8.810;2024-02-26T19:05:58;11.30;99.90
24232;DHT22;12364;47.810;8.810;2024-02-26T19:08:25;11.30;99.90
24232;DHT22;12364;47.810;8.810;2024-02-26T19:10:55;11.30;99.90
24232;DHT22;12364;47.810;8.810;2024-02-26T19:13:22;11.30;99.90
24232;DHT22;12364;47.810;8.810;2024-02-26T19:15:49;11.20;99.90
24232;DHT22;12364;47.810;8.810;2024-02-26T19:18:16;11.20;99.90
24232;DHT22;12364;47.810;8.810;2024-02-26T19:20:43;11.30;99.90
24232;DHT22;12364;47.810;8.810;2024-02-26T19:23:11;11.30;99.90
24232;DHT22;12364;47.810;8.810;2024-02-26T19:25:40;11.20;99.90
24232;DHT22;12364;47.810;8.810;2024-02-26T19:28:09;11.30;99.90
24232;DHT22;12364;47.810;8.810;2024-02-26T19:30:38;11.30;99.90
24232;DHT22;12364;47.810;8.810;2024-02-26T19:33:05;11.20;99.90
24232;DHT22;12364;47.810;8.810;2024-02-26T19:35:32;11.30;99.90
24232;DHT22;12364;47.810;8.810;2024-02-26T19:38:00;11.30;99.90
24232;DHT22;12364;47.810;8.810;2024-02-26T19:40:27;11.10;99.90
24232;DHT22;12364;47.810;8.810;2024-02-26T19:42:54;11.10;99.90
24232;DHT22;12364;47.810;8.810;2024-02-26T19:45:21;11.20;99.90
24232;DHT22;12364;47.810;8.810;2024-02-26T19:47:50;11.20;99.90
24232;DHT22;12364;47.810;8.810;2024-02-26T19:50:18;11.20;99.90
24232;DHT22;12364;47.810;8.810;2024-02-26T19:52:45;11.20;99.90
24232;DHT22;12364;47.810;8.810;2024-02-26T19:55:14;11.10;99.90
24232;DHT22;12364;47.810;8.810;2024-02-26T19:57:43;11.20;99.90
24232;DHT22;12364;47.810;8.810;2024-02-26T20:00:10;11.30;99.90
24232;DHT22;12364;47.810;8.810;2024-02-26T20:02:37;11.20;99.90
24232;DHT22;12364;47.810;8.810;2024-02-26T20:05:04;11.20;99.90
24232;DHT22;12364;47.810;8.810;2024-02-26T20:07:31;11.20;99.90
24232;DHT22;12364;47.810;8.810;2024-02-26T20:09:58;11.20;99.90
24232;DHT22;12364;47.810;8.810;2024-02-26T20:12:26;11.10;99.90
24232;DHT22;12364;47.810;8.810;2024-02-26T20:14:54;11.00;99.90
24232;DHT22;12364;47.810;8.810;2024-02-26T20:17:22;11.00;99.90
24232;DHT22;12364;47.810;8.810;2024-02-26T20:19:49;10.90;99.90
24232;DHT22;12364;47.810;8.810;2024-02-26T20:22:16;10.90;99.90
24232;DHT22;12364;47.810;8.810;2024-02-26T20:24:43;10.90;99.90
24232;DHT22;12364;47.810;8.810;2024-02-26T20:27:10;11.00;99.90
24232;DHT22;12364;47.810;8.810;2024-02-26T20:29:38;11.00;99.90
24232;DHT22;12364;47.810;8.810;2024-02-26T20:32:05;10.90;99.90
24232;DHT22;12364;47.810;8.810;2024-02-26T20:34:33;10.80;99.90
24232;DHT22;12364;47.810;8.810;2024-02-26T20:37:00;10.80;99.90